Time;durP1;ratioP1;P1;durP2;ratioP2;P2;SDS_P1;SDS_P2;PMS_P1;PMS_P2;Temp;Humidity;BMP_temperature;BMP_pressure;BME280_temperature;BME280_humidity;BME280_pressure;Samples;Min_cycle;Max_cycle;Signal;HPM_P1;HPM_P2
2023/11/11 00:01:11;;;;;;;4.50;1.70;;;;;;;9.42;78.08;98074.05;104869;1264;74310;-24
2023/11/11 00:03:39;;;;;;;5.20;1.40;;;;;;;9.30;79.02;98076.91;102352;1267;3356947;-25
2023/11/11 00:06:07;;;;;;;3.40;1.60;;;;;;;9.68;78.32;98073.21;104882;1266;61218;-24
2023/11/11 00:08:35;;;;;;;4.40;1.20;;;;;;;10.06;76.67;98071.79;105223;1264;61710;-24
2023/11/11 00:11:05;;;;;;;1.60;1.30;;;;;;;10.04;76.53;98062.52;105127;1263;71063;-24
2023/11/11 00:13:32;;;;;;;4.50;2.30;;;;;;;9.94;76.74;98062.64;105152;1264;73021;-24
2023/11/11 00:16:01;;;;;;;2.60;1.60;;;;;;;9.76;77.42;98056.19;105032;1267;71446;-25
2023/11/11 00:18:28;;;;;;;4.60;2.30;;;;;;;9.58;78.20;98052.30;105176;1268;61075;-24
2023/11/11 00:20:57;;;;;;;2.50;1.50;;;;;;;9.68;78.54;98051.38;105137;1262;61115;-24
2023/11/11 00:31:10;;;;;;;2.70;1.60;;;;;;;10.07;76.69;98039.92;102526;1293;600229;-25
2023/11/11 00:33:39;;;;;;;3.80;1.80;;;;;;;9.82;77.51;98036.02;104750;1269;61143;-24
2023/11/11 00:36:08;;;;;;;4.40;1.90;;;;;;;9.69;78.24;98030.96;104601;1267;61091;-24
2023/11/11 00:38:36;;;;;;;1.70;1.20;;;;;;;10.02;77.17;98026.02;104597;1276;72241;-24
2023/11/11 00:48:47;;;;;;;6.30;2.10;;;;;;;9.84;77.68;98011.06;102615;1293;600289;-24
2023/11/11 00:51:15;;;;;;;1.30;1.00;;;;;;;9.61;78.77;98013.88;104788;1267;61183;-25
2023/11/11 00:53:44;;;;;;;3.80;1.40;;;;;;;9.92;78.10;98014.15;105028;1269;61116;-24
2023/11/11 01:03:50;;;;;;;5.20;1.90;;;;;;;9.91;77.55;98002.61;102609;1292;600195;-25
2023/11/11 01:06:18;;;;;;;3.00;1.40;;;;;;;9.66;78.46;97996.59;104877;1268;61183;-24
2023/11/11 01:08:45;;;;;;;3.50;1.10;;;;;;;9.68;78.83;97990.22;104814;1265;61080;-24
2023/11/11 01:18:59;;;;;;;1.40;1.00;;;;;;;9.90;77.39;97971.54;102623;1295;600161;-24
2023/11/11 01:21:27;;;;;;;3.00;1.80;;;;;;;9.63;78.43;97966.39;104867;1268;61003;-24
2023/11/11 01:23:56;;;;;;;2.50;1.00;;;;;;;9.50;79.26;97960.52;105067;1269;61068;-24
2023/11/11 01:26:24;;;;;;;2.80;1.40;;;;;;;9.85;78.11;97956.06;104852;1273;72223;-24
2023/11/11 01:28:52;;;;;;;2.40;1.30;;;;;;;10.05;76.96;97949.23;104767;1268;73046;-25
2023/11/11 01:31:20;;;;;;;1.50;1.30;;;;;;;9.99;76.88;97953.62;104726;1271;72457;-26
2023/11/11 01:33:48;;;;;;;1.80;1.30;;;;;;;9.79;77.40;97939.78;102633;1268;61827;-26
2023/11/11 01:36:16;;;;;;;5.40;1.60;;;;;;;9.57;78.54;97942.39;104849;1264;61223;-24
2023/11/11 01:38:44;;;;;;;1.90;1.00;;;;;;;9.48;79.20;97941.17;104832;1280;61223;-24
2023/11/11 01:41:13;;;;;;;2.20;1.30;;;;;;;9.85;77.84;97940.42;105125;1264;73038;-26
2023/11/11 01:43:40;;;;;;;4.10;1.70;;;;;;;10.00;76.87;97938.30;104819;1271;72705;-25
2023/11/11 01:46:08;;;;;;;2.60;1.50;;;;;;;9.93;76.56;97937.24;105113;1269;61074;-25
2023/11/11 01:48:37;;;;;;;1.80;1.30;;;;;;;9.72;77.45;97934.73;104927;1264;61059;-25
2023/11/11 01:51:05;;;;;;;1.60;1.20;;;;;;;9.55;77.91;97937.56;105011;1264;72997;-25
2023/11/11 01:53:33;;;;;;;3.40;1.50;;;;;;;9.40;78.60;97933.00;104867;1269;72733;-25
2023/11/11 01:56:01;;;;;;;3.40;1.20;;;;;;;9.75;77.32;97926.77;104886;1264;71303;-25
2023/11/11 01:58:30;;;;;;;1.80;1.20;;;;;;;9.87;76.28;97927.26;105071;1267;61106;-25
2023/11/11 02:00:58;;;;;;;2.40;1.50;;;;;;;9.76;76.61;97924.09;105125;1261;61138;-25
2023/11/11 02:03:26;;;;;;;2.60;1.60;;;;;;;9.61;76.72;97915.30;105191;1261;71847;-25
2023/11/11 02:05:55;;;;;;;2.80;1.60;;;;;;;9.43;77.45;97911.83;105274;1266;73410;-25
2023/11/11 02:08:25;;;;;;;2.50;1.30;;;;;;;9.46;77.76;97912.73;105232;1266;72727;-26
2023/11/11 02:18:32;;;;;;;2.00;1.20;;;;;;;9.67;76.15;97902.41;102581;1293;600324;-24
2023/11/11 02:21:01;;;;;;;2.00;1.00;;;;;;;9.49;76.56;97903.51;104886;1266;61072;-24
2023/11/11 02:23:35;;;;;;;2.40;1.10;;;;;;;9.43;77.13;97898.84;105059;1266;61141;-24
2023/11/11 02:26:04;;;;;;;1.60;1.00;;;;;;;9.87;75.37;97898.84;104890;1264;71279;-26
2023/11/11 02:28:32;;;;;;;3.80;1.40;;;;;;;10.12;74.20;97902.84;105225;1263;74262;-26
2023/11/11 02:38:48;;;;;;;3.00;1.70;;;;;;;9.52;75.99;97889.84;103036;1290;599943;-25
2023/11/11 02:49:19;;;;;;;5.20;1.20;;;;;;;10.03;73.75;97873.00;102489;1292;614049;-25
2023/11/11 02:51:46;;;;;;;1.60;1.20;;;;;;;9.88;74.05;97871.46;104890;1266;61097;-26
2023/11/11 02:54:13;;;;;;;3.10;1.50;;;;;;;9.67;74.56;97864.63;104930;1266;61176;-26
2023/11/11 02:56:40;;;;;;;4.60;1.30;;;;;;;9.46;75.33;97858.33;104903;1266;72169;-27
2023/11/11 02:59:07;;;;;;;2.40;0.80;;;;;;;9.32;75.95;97850.11;104775;1266;74171;-26
2023/11/11 03:01:35;;;;;;;2.00;1.20;;;;;;;9.69;74.75;97849.36;102502;1267;3379858;-26
2023/11/11 03:04:03;;;;;;;2.60;1.00;;;;;;;9.92;73.38;97842.69;105063;1263;61535;-26
2023/11/11 03:06:31;;;;;;;4.10;1.40;;;;;;;9.91;73.44;97845.21;104881;1271;61201;-26
2023/11/11 03:08:58;;;;;;;5.40;1.60;;;;;;;9.75;73.69;97840.70;104853;1270;72295;-26
2023/11/11 03:11:25;;;;;;;1.70;1.40;;;;;;;9.57;74.36;97839.49;105223;1259;73262;-26
2023/11/11 03:13:52;;;;;;;2.30;1.10;;;;;;;9.43;74.94;97840.97;105260;1259;72706;-26
2023/11/11 03:16:19;;;;;;;1.60;1.00;;;;;;;9.37;75.76;97841.38;105247;1259;61780;-26
2023/11/11 03:18:46;;;;;;;1.80;1.50;;;;;;;9.79;74.44;97842.35;105279;1264;61060;-26
2023/11/11 03:21:20;;;;;;;2.70;1.30;;;;;;;10.03;73.44;97834.67;105234;1259;73162;-26
2023/11/11 03:23:47;;;;;;;2.10;1.30;;;;;;;9.91;73.29;97830.45;104891;1259;74375;-27
2023/11/11 03:26:14;;;;;;;4.10;1.40;;;;;;;9.73;74.31;97823.03;105193;1260;72641;-26
2023/11/11 03:28:41;;;;;;;1.90;1.30;;;;;;;9.50;74.96;97825.05;105282;1259;61241;-27
2023/11/11 03:31:09;;;;;;;4.10;2.00;;;;;;;9.28;76.06;97830.23;105223;1266;61139;-27
2023/11/11 03:33:36;;;;;;;2.60;1.30;;;;;;;9.28;76.58;97832.83;105245;1261;73066;-27
2023/11/11 03:36:04;;;;;;;2.80;1.50;;;;;;;9.68;75.25;97820.39;105246;1263;74024;-25
2023/11/11 03:38:31;;;;;;;2.70;1.40;;;;;;;9.78;74.63;97822.73;105122;1267;71199;-26
2023/11/11 03:40:58;;;;;;;2.30;1.60;;;;;;;9.64;74.79;97817.83;105252;1263;61082;-24
2023/11/11 03:43:25;;;;;;;2.60;1.60;;;;;;;9.43;75.65;97816.92;105214;1264;61565;-24
2023/11/11 03:45:53;;;;;;;4.20;1.70;;;;;;;9.21;76.49;97820.90;105214;1263;72733;-24
2023/11/11 03:48:20;;;;;;;3.20;1.10;;;;;;;9.04;77.31;97817.50;105228;1262;74930;-24
2023/11/11 03:50:48;;;;;;;2.30;1.30;;;;;;;9.34;76.54;97821.90;105245;1260;72546;-24
2023/11/11 03:53:15;;;;;;;1.90;1.20;;;;;;;9.59;75.34;97817.60;105241;1260;61039;-24
2023/11/11 03:55:41;;;;;;;4.20;1.80;;;;;;;9.57;74.99;97819.23;105188;1265;61166;-26
2023/11/11 03:58:09;;;;;;;3.20;1.90;;;;;;;9.39;75.46;97814.68;105242;1262;73581;-27
2023/11/11 04:00:36;;;;;;;2.40;1.30;;;;;;;9.16;76.40;97807.02;105299;1263;74381;-24
2023/11/11 04:03:03;;;;;;;2.80;1.20;;;;;;;8.96;77.09;97805.05;105075;1260;73339;-27
2023/11/11 04:05:31;;;;;;;2.10;1.50;;;;;;;9.11;76.78;97801.70;105116;1261;61061;-27
2023/11/11 04:07:58;;;;;;;4.20;1.80;;;;;;;9.49;75.03;97799.34;105182;1262;61208;-26
2023/11/11 04:10:25;;;;;;;2.60;1.40;;;;;;;9.49;74.96;97796.06;105288;1262;72829;-26
2023/11/11 04:12:52;;;;;;;4.20;1.60;;;;;;;9.29;75.26;97795.00;105178;1262;74123;-27
2023/11/11 04:15:20;;;;;;;2.80;1.60;;;;;;;9.11;76.09;97793.40;105214;1260;72492;-24
2023/11/11 04:17:48;;;;;;;3.60;1.10;;;;;;;8.92;76.70;97785.15;105148;1263;61165;-24
2023/11/11 04:20:17;;;;;;;3.40;1.10;;;;;;;8.98;76.85;97786.02;105084;1261;61148;-24
2023/11/11 04:22:44;;;;;;;2.50;1.60;;;;;;;9.30;75.44;97779.48;105220;1262;73095;-25
2023/11/11 04:25:11;;;;;;;3.20;1.40;;;;;;;9.35;74.83;97780.61;105181;1262;74261;-25
2023/11/11 04:27:40;;;;;;;4.40;1.80;;;;;;;9.23;74.98;97773.04;105273;1263;71653;-25
2023/11/11 04:30:09;;;;;;;5.60;2.50;;;;;;;9.01;75.69;97778.39;105199;1261;61066;-25
2023/11/11 04:32:36;;;;;;;6.80;1.60;;;;;;;8.83;76.83;97773.20;104972;1266;61050;-25
2023/11/11 04:35:04;;;;;;;2.40;1.30;;;;;;;8.86;77.31;97775.84;105201;1263;72720;-25
2023/11/11 04:37:32;;;;;;;2.50;1.30;;;;;;;9.28;75.67;97772.62;105152;1261;74295;-25
2023/11/11 04:39:59;;;;;;;8.20;1.40;;;;;;;9.33;74.64;97770.48;105245;1260;72505;-25
2023/11/11 04:42:29;;;;;;;7.30;2.90;;;;;;;9.18;75.07;97771.42;105352;1259;61056;-25
2023/11/11 04:44:56;;;;;;;9.20;3.60;;;;;;;9.00;75.67;97771.44;105312;1259;61143;-25
2023/11/11 04:47:23;;;;;;;7.40;3.20;;;;;;;8.80;76.71;97774.18;105235;1264;73051;-25
2023/11/11 04:49:50;;;;;;;4.80;2.30;;;;;;;8.62;77.56;97771.48;105337;1264;74435;-25
2023/11/11 04:52:17;;;;;;;5.30;1.70;;;;;;;8.92;77.09;97772.20;105320;1259;72602;-25
2023/11/11 04:54:48;;;;;;;5.20;2.70;;;;;;;9.20;75.82;97777.17;105208;1260;61061;-26
2023/11/11 04:57:15;;;;;;;6.80;3.30;;;;;;;9.06;75.79;97773.77;105318;1265;61180;-25
2023/11/11 04:59:42;;;;;;;7.00;2.90;;;;;;;8.92;76.66;97779.64;105299;1260;72775;-25
2023/11/11 05:02:09;;;;;;;2.70;1.30;;;;;;;8.76;77.07;97777.64;105224;1260;74341;-25
2023/11/11 05:04:37;;;;;;;5.20;2.50;;;;;;;8.56;78.32;97776.76;105262;1259;71368;-25
2023/11/11 05:07:04;;;;;;;8.70;2.80;;;;;;;8.88;77.90;97780.36;105335;1260;61070;-25
2023/11/11 05:09:31;;;;;;;8.70;2.20;;;;;;;9.18;76.30;97777.60;105265;1265;61083;-25
2023/11/11 05:11:58;;;;;;;4.20;2.40;;;;;;;9.14;76.32;97775.86;105410;1259;73015;-25
2023/11/11 05:14:25;;;;;;;5.60;2.60;;;;;;;8.96;76.94;97774.25;105325;1260;74417;-25
2023/11/11 05:16:52;;;;;;;2.70;1.90;;;;;;;8.78;78.23;97772.83;105338;1259;73089;-26
2023/11/11 05:19:20;;;;;;;5.30;1.60;;;;;;;8.62;79.53;97771.38;105314;1260;61839;-25
2023/11/11 05:21:47;;;;;;;2.70;1.60;;;;;;;8.90;79.67;97765.13;105388;1261;61129;-25
2023/11/11 05:24:15;;;;;;;3.20;1.20;;;;;;;9.16;78.44;97766.96;105411;1259;73129;-26
2023/11/11 05:26:42;;;;;;;5.60;2.10;;;;;;;9.12;78.66;97768.93;105368;1259;74347;-26
2023/11/11 05:29:09;;;;;;;2.60;1.70;;;;;;;8.92;79.59;97772.59;105337;1260;73177;-26
2023/11/11 05:31:36;;;;;;;5.80;1.70;;;;;;;8.69;81.15;97767.44;105342;1260;61043;-25
2023/11/11 05:34:03;;;;;;;3.00;1.20;;;;;;;8.56;82.29;97772.30;105322;1263;61105;-25
2023/11/11 05:36:33;;;;;;;2.00;1.40;;;;;;;8.95;81.66;97776.95;105136;1259;73005;-25
2023/11/11 05:39:00;;;;;;;5.80;1.80;;;;;;;9.19;80.20;97769.79;105233;1259;74144;-25
2023/11/11 05:41:29;;;;;;;3.90;1.30;;;;;;;9.13;80.40;97767.13;105381;1260;72629;-25
2023/11/11 05:43:57;;;;;;;1.30;1.10;;;;;;;8.95;81.12;97764.64;105357;1260;61090;-25
2023/11/11 05:46:25;;;;;;;2.80;1.70;;;;;;;8.71;83.01;97759.64;105256;1265;61174;-26
2023/11/11 05:48:52;;;;;;;3.30;1.80;;;;;;;8.88;83.41;97761.84;105319;1259;73001;-25
2023/11/11 05:51:19;;;;;;;2.00;1.50;;;;;;;9.20;82.25;97757.03;105353;1264;74039;-26
2023/11/11 05:53:46;;;;;;;5.90;2.20;;;;;;;9.26;81.67;97756.17;105378;1260;73211;-25
2023/11/11 05:56:14;;;;;;;3.20;2.20;;;;;;;9.09;82.70;97756.56;105316;1260;61175;-25
2023/11/11 05:58:42;;;;;;;3.80;1.70;;;;;;;8.86;84.13;97756.11;105316;1259;61205;-26
2023/11/11 06:01:08;;;;;;;3.70;1.90;;;;;;;8.99;84.39;97753.20;105359;1259;73146;-25
2023/11/11 06:03:36;;;;;;;3.60;1.80;;;;;;;9.38;83.13;97755.56;105330;1259;74337;-26
2023/11/11 06:06:04;;;;;;;4.50;2.30;;;;;;;9.39;82.91;97755.96;105377;1264;72650;-28
2023/11/11 06:08:31;;;;;;;5.80;2.50;;;;;;;9.19;83.81;97754.03;105265;1259;61098;-27
2023/11/11 06:10:58;;;;;;;5.90;2.40;;;;;;;9.04;85.00;97753.27;105220;1259;61148;-27
2023/11/11 06:13:25;;;;;;;5.90;2.40;;;;;;;9.23;85.06;97752.93;105115;1259;71770;-27
2023/11/11 06:15:52;;;;;;;4.30;2.10;;;;;;;9.54;83.89;97745.69;105234;1260;74373;-27
2023/11/11 06:18:19;;;;;;;7.10;2.90;;;;;;;9.54;83.99;97742.18;105177;1259;72688;-27
2023/11/11 06:20:46;;;;;;;13.00;2.90;;;;;;;9.39;84.81;97736.58;105141;1260;60985;-24
2023/11/11 06:23:13;;;;;;;3.90;2.40;;;;;;;9.25;86.31;97733.77;105246;1264;61545;-24
2023/11/11 06:25:43;;;;;;;6.50;4.10;;;;;;;9.56;85.59;97719.46;105330;1259;73026;-24
2023/11/11 06:28:10;;;;;;;8.60;3.90;;;;;;;9.74;84.86;97720.20;105337;1259;74519;-24
2023/11/11 06:30:38;;;;;;;6.30;3.80;;;;;;;9.65;85.24;97718.32;105164;1261;72798;-24
2023/11/11 06:33:05;;;;;;;5.90;2.90;;;;;;;9.51;86.05;97715.30;105061;1260;61095;-25
2023/11/11 06:35:34;;;;;;;8.40;3.40;;;;;;;9.69;86.10;97712.15;105098;1264;61157;-24
2023/11/11 06:38:01;;;;;;;8.30;3.50;;;;;;;10.04;84.45;97707.30;105001;1266;70557;-24
2023/11/11 06:40:30;;;;;;;6.90;4.80;;;;;;;9.99;84.30;97707.52;105646;1262;74346;-24
2023/11/11 06:42:57;;;;;;;7.70;4.10;;;;;;;9.83;85.11;97703.67;105620;1262;72729;-25
2023/11/11 06:45:24;;;;;;;5.60;2.80;;;;;;;9.69;86.01;97702.48;105354;1261;61162;-25
2023/11/11 06:47:52;;;;;;;7.90;3.50;;;;;;;9.97;85.45;97699.30;105600;1260;61159;-25
2023/11/11 06:50:19;;;;;;;4.60;3.50;;;;;;;10.31;83.72;97694.17;105577;1262;73028;-25
2023/11/11 06:52:48;;;;;;;7.80;4.40;;;;;;;10.29;83.23;97694.95;105637;1259;74313;-24
2023/11/11 06:55:15;;;;;;;7.50;4.50;;;;;;;10.10;84.32;97693.85;105551;1259;71721;-24
2023/11/11 06:57:42;;;;;;;5.10;3.10;;;;;;;9.87;85.75;97693.70;105565;1258;61149;-24
2023/11/11 07:00:15;;;;;;;5.30;4.10;;;;;;;10.06;85.41;97687.13;105593;1262;61138;-24
2023/11/11 07:02:43;;;;;;;5.80;3.80;;;;;;;10.41;83.59;97681.08;105482;1262;73674;-25
2023/11/11 07:05:11;;;;;;;5.00;4.20;;;;;;;10.34;83.42;97669.85;105555;1262;74944;-24
2023/11/11 07:07:40;;;;;;;7.50;4.40;;;;;;;10.18;84.05;97665.30;105577;1258;73133;-24
2023/11/11 07:10:09;;;;;;;4.60;3.00;;;;;;;9.98;85.42;97660.40;105492;1262;61148;-24
2023/11/11 07:12:36;;;;;;;5.90;3.30;;;;;;;10.16;84.89;97654.73;105243;1257;61204;-25
2023/11/11 07:15:04;;;;;;;3.60;3.10;;;;;;;10.35;83.60;97651.13;105134;1257;73792;-25
2023/11/11 07:17:32;;;;;;;6.80;4.30;;;;;;;10.27;83.98;97651.42;105159;1262;74359;-25
2023/11/11 07:19:58;;;;;;;6.00;3.90;;;;;;;10.12;84.64;97652.40;105488;1260;72628;-26
2023/11/11 07:22:26;;;;;;;5.70;3.50;;;;;;;9.97;85.62;97648.70;105177;1259;62454;-26
2023/11/11 07:24:54;;;;;;;4.10;2.50;;;;;;;10.24;84.43;97643.23;105184;1261;61154;-26
2023/11/11 07:27:21;;;;;;;4.00;3.30;;;;;;;10.33;83.48;97644.71;105168;1257;73851;-26
2023/11/11 07:29:48;;;;;;;4.40;3.10;;;;;;;10.22;83.94;97639.30;105587;1262;74135;-26
2023/11/11 07:32:15;;;;;;;2.50;2.30;;;;;;;10.01;85.09;97636.30;105579;1260;72588;-26
2023/11/11 07:34:43;;;;;;;3.30;3.00;;;;;;;10.10;85.41;97630.13;105535;1256;61126;-26
2023/11/11 07:37:11;;;;;;;4.80;3.50;;;;;;;10.40;83.47;97626.34;105441;1259;61106;-26
2023/11/11 07:39:38;;;;;;;3.10;2.80;;;;;;;10.48;82.75;97632.64;105335;1262;73690;-26
2023/11/11 07:42:07;;;;;;;4.70;3.80;;;;;;;10.29;82.91;97634.74;105520;1261;74288;-26
2023/11/11 07:44:36;;;;;;;6.00;2.70;;;;;;;10.08;84.02;97630.31;105112;1260;72748;-26
2023/11/11 07:47:06;;;;;;;2.80;2.50;;;;;;;10.09;84.17;97628.95;105176;1257;61166;-26
2023/11/11 07:49:34;;;;;;;4.40;3.10;;;;;;;10.28;82.38;97611.91;105078;1262;61221;-26
2023/11/11 07:52:02;;;;;;;3.70;3.10;;;;;;;10.23;82.29;97624.92;105466;1262;73665;-26
2023/11/11 07:54:31;;;;;;;3.50;3.20;;;;;;;10.07;82.73;97619.58;105505;1257;74428;-26
2023/11/11 07:56:58;;;;;;;3.90;2.20;;;;;;;9.91;83.39;97616.57;105447;1256;71220;-27
2023/11/11 07:59:25;;;;;;;4.80;2.80;;;;;;;10.19;82.37;97617.67;105075;1265;61184;-26
2023/11/11 08:01:53;;;;;;;3.30;2.80;;;;;;;10.25;81.04;97614.83;105203;1260;61138;-26
2023/11/11 08:04:20;;;;;;;4.50;2.60;;;;;;;10.08;81.23;97610.54;105395;1262;72245;-25
2023/11/11 08:06:47;;;;;;;5.10;2.30;;;;;;;9.82;81.90;97613.86;105209;1262;75949;-25
2023/11/11 08:09:16;;;;;;;3.30;2.20;;;;;;;9.84;82.18;97612.76;105240;1257;72484;-25
2023/11/11 08:11:46;;;;;;;2.60;2.30;;;;;;;10.09;80.67;97613.35;105205;1260;61138;-25
2023/11/11 08:14:13;;;;;;;3.50;2.50;;;;;;;10.06;80.09;97605.20;105527;1261;61202;-25
2023/11/11 08:16:40;;;;;;;3.20;2.40;;;;;;;9.88;80.66;97608.05;105626;1261;73775;-25
2023/11/11 08:19:08;;;;;;;3.30;2.40;;;;;;;9.72;81.60;97606.83;105580;1257;74147;-26
2023/11/11 08:21:35;;;;;;;2.50;2.20;;;;;;;9.84;81.42;97603.89;105314;1258;72698;-25
2023/11/11 08:24:03;;;;;;;2.40;1.60;;;;;;;10.15;79.91;97606.86;105406;1258;61118;-26
2023/11/11 08:26:30;;;;;;;2.50;1.80;;;;;;;10.16;79.43;97598.27;105175;1258;61173;-26
2023/11/11 08:29:00;;;;;;;2.40;2.10;;;;;;;10.01;80.13;97602.69;105452;1257;74350;-26
2023/11/11 08:32:20;;;;;;;2.30;1.80;;;;;;;9.69;81.94;97594.63;102601;1294;600515;-25
2023/11/11 08:34:48;;;;;;;1.90;1.60;;;;;;;9.89;81.97;97593.36;104810;1266;61123;-25
2023/11/11 08:37:16;;;;;;;2.80;1.50;;;;;;;9.96;81.81;97591.40;104833;1267;61156;-25
2023/11/11 08:39:44;;;;;;;2.20;1.90;;;;;;;9.79;82.75;97581.52;104811;1267;72233;-25
2023/11/11 08:42:14;;;;;;;1.60;1.50;;;;;;;9.54;83.89;97585.23;104877;1267;74347;-25
2023/11/11 08:44:42;;;;;;;1.60;1.50;;;;;;;9.56;84.41;97579.16;104853;1270;72644;-26
2023/11/11 08:47:09;;;;;;;2.00;1.70;;;;;;;9.70;84.33;97580.08;102498;1270;61250;-26
2023/11/11 08:49:37;;;;;;;2.80;2.40;;;;;;;9.49;84.62;97564.41;105185;1264;61182;-26
2023/11/11 08:52:05;;;;;;;2.20;1.50;;;;;;;9.23;85.95;97579.33;105111;1270;61228;-26
2023/11/11 09:02:13;;;;;;;5.00;1.90;;;;;;;9.38;86.30;97559.80;102535;1294;599478;-27
2023/11/11 09:12:23;;;;;;;3.80;2.60;;;;;;;9.43;85.69;97540.11;102634;1292;599943;-27
2023/11/11 09:14:52;;;;;;;2.70;2.10;;;;;;;9.20;86.44;97529.23;105043;1269;61742;-25
2023/11/11 09:17:24;;;;;;;3.10;2.20;;;;;;;9.32;86.10;97523.86;104827;1266;61074;-27
2023/11/11 09:19:52;;;;;;;3.70;3.20;;;;;;;9.53;85.29;97520.38;104858;1272;72198;-27
2023/11/11 09:29:59;;;;;;;2.60;2.10;;;;;;;9.57;85.57;97510.08;102602;1293;600196;-26
2023/11/11 09:32:27;;;;;;;2.70;2.30;;;;;;;9.54;85.28;97503.52;104813;1267;61232;-25
2023/11/11 09:34:55;;;;;;;3.70;2.40;;;;;;;9.32;86.33;97501.85;104870;1269;61186;-26
2023/11/11 09:37:23;;;;;;;2.30;2.00;;;;;;;9.25;86.99;97496.82;104810;1272;72198;-27
2023/11/11 09:39:51;;;;;;;2.80;2.20;;;;;;;9.62;85.67;97492.13;104785;1267;74296;-26
2023/11/11 09:42:19;;;;;;;3.40;3.00;;;;;;;9.70;84.75;97486.61;104766;1266;71536;-26
2023/11/11 09:44:47;;;;;;;4.30;3.10;;;;;;;9.52;85.45;97479.75;102521;1264;3378827;-26
2023/11/11 09:47:18;;;;;;;2.00;1.60;;;;;;;9.33;86.53;97473.40;105188;1265;61112;-26
2023/11/11 09:49:46;;;;;;;2.20;2.00;;;;;;;9.49;86.22;97463.95;104852;1267;72234;-26
2023/11/11 09:52:14;;;;;;;4.80;3.00;;;;;;;9.66;85.74;97469.52;105204;1264;74369;-26
2023/11/11 10:02:26;;;;;;;5.60;2.70;;;;;;;9.62;86.27;97455.59;102596;1295;600088;-26
2023/11/11 10:04:54;;;;;;;3.90;2.60;;;;;;;9.51;86.51;97449.59;104779;1273;61644;-25
2023/11/11 10:07:22;;;;;;;3.40;2.90;;;;;;;9.32;87.64;97449.86;104831;1267;61145;-25
2023/11/11 10:09:51;;;;;;;2.20;1.60;;;;;;;9.22;88.42;97444.89;104841;1267;72189;-25
2023/11/11 10:12:18;;;;;;;3.30;2.40;;;;;;;9.56;87.52;97436.42;104851;1267;76089;-26
2023/11/11 10:14:48;;;;;;;4.00;2.80;;;;;;;9.71;86.08;97435.59;104748;1272;73557;-26
2023/11/11 10:17:16;;;;;;;3.70;2.10;;;;;;;9.52;86.80;97433.47;102415;1274;62311;-26
2023/11/11 10:19:43;;;;;;;3.70;1.90;;;;;;;9.31;87.85;97430.34;104957;1264;61118;-28
2023/11/11 10:22:25;;;;;;;2.70;1.80;;;;;;;9.45;88.31;97428.17;104799;1264;71015;-26
2023/11/11 10:32:42;;;;;;;2.50;1.90;;;;;;;9.24;89.20;97424.80;102612;1294;599956;-26
2023/11/11 10:35:10;;;;;;;6.60;2.60;;;;;;;9.44;88.03;97421.55;104897;1267;61088;-26
2023/11/11 10:37:38;;;;;;;2.40;1.80;;;;;;;9.42;87.81;97420.13;104819;1266;61184;-27
2023/11/11 10:40:07;;;;;;;2.20;1.40;;;;;;;9.24;88.43;97411.98;104783;1272;72202;-27
2023/11/11 10:42:35;;;;;;;3.80;2.20;;;;;;;9.37;88.81;97411.68;105171;1263;74357;-26
2023/11/11 10:45:03;;;;;;;2.30;1.80;;;;;;;9.62;87.33;97399.55;105197;1267;72680;-27
2023/11/11 10:55:11;;;;;;;1.80;1.40;;;;;;;9.54;88.86;97396.05;102657;1293;599492;-28
2023/11/11 10:57:42;;;;;;;2.50;2.00;;;;;;;9.64;87.57;97393.84;104794;1264;61152;-29
2023/11/11 11:07:54;;;;;;;1.80;1.50;;;;;;;9.89;87.46;97376.14;102667;1295;600177;-25
2023/11/11 11:10:28;;;;;;;1.90;1.70;;;;;;;9.82;87.06;97373.90;104872;1268;61206;-25
2023/11/11 11:12:59;;;;;;;2.40;1.90;;;;;;;9.58;87.72;97370.14;104758;1267;62756;-24
2023/11/11 11:15:28;;;;;;;1.60;1.30;;;;;;;9.38;88.81;97366.04;104771;1273;72230;-24
2023/11/11 11:17:56;;;;;;;1.30;1.10;;;;;;;9.64;88.29;97365.40;104829;1266;74296;-24
2023/11/11 11:20:25;;;;;;;1.60;1.30;;;;;;;9.84;86.79;97357.62;102430;1266;3290936;-25
2023/11/11 11:22:59;;;;;;;1.70;1.30;;;;;;;9.71;87.14;97358.45;104819;1263;61181;-24
2023/11/11 11:25:50;;;;;;;4.60;1.30;;;;;;;9.49;88.25;97355.89;104890;1271;61980;-24
2023/11/11 11:28:22;;;;;;;2.40;1.10;;;;;;;9.38;89.48;97353.56;104850;1271;70993;-24
2023/11/11 11:30:58;;;;;;;1.40;1.10;;;;;;;9.76;87.90;97349.83;105090;1263;74552;-24
2023/11/11 11:33:33;;;;;;;1.90;1.20;;;;;;;9.83;87.15;97350.77;105082;1268;72709;-23
2023/11/11 11:43:51;;;;;;;1.90;1.50;;;;;;;9.72;88.07;97338.85;102544;1292;600889;-22
2023/11/11 11:53:58;;;;;;;2.70;1.30;;;;;;;9.83;87.78;97325.55;102925;1289;600129;-22
2023/11/11 11:56:28;;;;;;;1.80;1.40;;;;;;;9.80;87.13;97321.61;104795;1272;61280;-21
2023/11/11 11:58:58;;;;;;;2.20;1.50;;;;;;;9.62;87.87;97319.38;104850;1267;61115;-21
2023/11/11 12:01:27;;;;;;;1.10;0.80;;;;;;;9.39;88.98;97316.36;104846;1271;74359;-21
2023/11/11 12:03:55;;;;;;;3.60;1.20;;;;;;;9.53;89.66;97313.73;104846;1272;76280;-24
2023/11/11 12:14:13;;;;;;;1.20;0.80;;;;;;;9.42;88.89;97316.98;102553;1291;600276;-21
2023/11/11 12:16:47;;;;;;;1.30;1.10;;;;;;;9.60;89.22;97316.31;104855;1267;61184;-22
2023/11/11 12:26:56;;;;;;;1.00;0.70;;;;;;;9.41;88.82;97312.85;102618;1293;599991;-21
2023/11/11 12:29:29;;;;;;;2.40;0.80;;;;;;;9.65;89.00;97312.34;104840;1273;61180;-22
2023/11/11 12:31:57;;;;;;;1.20;1.00;;;;;;;9.98;86.92;97304.39;104838;1273;61058;-22
2023/11/11 12:34:28;;;;;;;2.60;1.40;;;;;;;9.93;86.36;97306.04;104818;1271;72208;-21
2023/11/11 12:36:56;;;;;;;1.70;1.20;;;;;;;9.75;87.28;97302.23;104758;1267;77159;-22
2023/11/11 12:39:24;;;;;;;1.90;1.10;;;;;;;9.48;88.04;97302.24;102378;1267;3356787;-26
2023/11/11 12:41:56;;;;;;;1.60;1.10;;;;;;;9.38;89.26;97300.05;104767;1264;61474;-22
2023/11/11 12:52:15;;;;;;;1.10;1.00;;;;;;;9.69;87.32;97283.12;102482;1295;616486;-22
2023/11/11 12:54:42;;;;;;;1.60;1.10;;;;;;;9.41;88.41;97280.34;105631;1254;62021;-22
2023/11/11 12:57:11;;;;;;;1.60;1.20;;;;;;;9.67;87.98;97280.02;105663;1255;61050;-22
2023/11/11 12:59:53;;;;;;;1.80;1.40;;;;;;;9.90;86.97;97280.04;105647;1260;71063;-22
2023/11/11 13:02:22;;;;;;;3.00;1.20;;;;;;;9.83;86.84;97274.08;105595;1260;74846;-22
2023/11/11 13:04:50;;;;;;;2.50;1.40;;;;;;;9.61;87.46;97271.33;103194;1257;3459743;-22
2023/11/11 13:07:21;;;;;;;1.30;1.00;;;;;;;9.36;88.25;97268.19;105911;1254;61613;-23
2023/11/11 13:09:49;;;;;;;1.90;1.10;;;;;;;9.66;88.45;97264.56;105717;1258;61137;-23
2023/11/11 13:12:17;;;;;;;1.70;1.20;;;;;;;9.95;86.86;97262.36;105674;1255;72399;-23
2023/11/11 13:14:44;;;;;;;1.60;1.10;;;;;;;9.83;87.04;97261.40;105913;1254;74301;-23
2023/11/11 13:17:12;;;;;;;1.70;1.20;;;;;;;9.56;87.53;97255.52;105712;1254;72522;-23
2023/11/11 13:19:42;;;;;;;3.00;1.00;;;;;;;9.27;88.77;97255.59;105870;1254;61883;-23
2023/11/11 13:22:09;;;;;;;1.00;0.80;;;;;;;9.56;88.49;97257.66;105881;1254;61125;-23
2023/11/11 13:24:42;;;;;;;2.50;1.10;;;;;;;9.77;87.55;97256.08;105889;1254;72960;-22
2023/11/11 13:27:09;;;;;;;1.90;1.40;;;;;;;9.69;87.54;97252.77;105905;1257;73706;-22
2023/11/11 13:29:36;;;;;;;1.40;1.30;;;;;;;9.49;87.99;97248.65;105920;1254;72773;-23
2023/11/11 13:32:04;;;;;;;1.30;1.00;;;;;;;9.27;89.14;97246.92;105855;1255;63126;-23
2023/11/11 13:34:33;;;;;;;1.60;1.20;;;;;;;9.64;88.68;97246.23;105736;1254;61183;-22
2023/11/11 13:37:00;;;;;;;2.10;1.30;;;;;;;9.98;86.99;97242.14;105686;1257;72012;-23
2023/11/11 13:39:37;;;;;;;3.00;1.00;;;;;;;9.90;86.22;97240.73;105878;1257;73742;-22
2023/11/11 13:42:09;;;;;;;1.20;1.10;;;;;;;9.61;87.30;97239.65;105605;1258;73002;-23
2023/11/11 13:44:37;;;;;;;1.60;1.10;;;;;;;9.35;88.29;97237.52;105614;1254;61173;-23
2023/11/11 13:47:05;;;;;;;1.10;0.90;;;;;;;9.36;89.33;97240.98;105596;1257;61212;-23
2023/11/11 13:49:32;;;;;;;1.50;1.10;;;;;;;9.76;87.74;97239.96;105859;1257;74160;-23
2023/11/11 13:51:59;;;;;;;1.50;1.30;;;;;;;9.75;86.96;97237.63;105532;1258;74365;-23
2023/11/11 13:54:26;;;;;;;2.20;1.40;;;;;;;9.54;87.70;97235.67;105842;1254;72605;-23
2023/11/11 13:56:56;;;;;;;1.90;1.30;;;;;;;9.32;88.53;97235.91;105846;1254;61424;-23
2023/11/11 13:59:24;;;;;;;0.80;0.70;;;;;;;9.20;89.75;97233.48;105772;1257;61689;-22
2023/11/11 14:01:51;;;;;;;1.90;1.10;;;;;;;9.74;89.01;97232.17;105581;1254;72915;-22
2023/11/11 14:04:19;;;;;;;3.30;1.00;;;;;;;9.98;86.98;97229.42;105711;1257;73557;-22